createdAt,value
2016-06-11T00:00:39.901Z,0
2016-06-11T00:01:36.623Z,0
2016-06-11T00:02:36.595Z,0
2016-06-11T00:03:39.535Z,0
2016-06-11T00:04:39.851Z,0
2016-06-11T00:05:39.448Z,0
2016-06-11T00:06:36.607Z,0
2016-06-11T00:07:39.392Z,0
2016-06-11T00:08:36.519Z,0
2016-06-11T00:09:39.914Z,0
2016-06-11T00:10:39.228Z,0
2016-06-11T00:11:36.216Z,0
2016-06-11T00:12:38.985Z,0
2016-06-11T00:13:38.957Z,0
2016-06-11T00:14:39.538Z,0
2016-06-11T00:15:39.010Z,0
2016-06-11T00:16:35.949Z,0
2016-06-11T00:17:36.094Z,0
2016-06-11T00:18:53.894Z,0
2016-06-11T00:19:42.428Z,0
2016-06-11T00:20:39.009Z,0
2016-06-11T00:21:38.731Z,0
2016-06-11T00:22:35.891Z,0
2016-06-11T00:23:41.721Z,0
2016-06-11T00:24:41.568Z,0
2016-06-11T00:25:47.556Z,0
2016-06-11T00:26:35.513Z,0
2016-06-11T00:27:41.500Z,0
2016-06-11T00:28:41.503Z,0
2016-06-11T00:29:39.428Z,0
2016-06-11T00:30:38.181Z,0
2016-06-11T00:31:35.512Z,0
2016-06-11T00:32:35.296Z,0
2016-06-11T00:33:35.877Z,0
2016-06-11T00:34:35.693Z,0
2016-06-11T00:35:35.102Z,0
2016-06-11T00:36:35.403Z,0
2016-06-11T00:37:35.014Z,0
2016-06-11T00:38:34.987Z,0
2016-06-11T00:39:34.942Z,0
2016-06-11T00:40:34.884Z,0
2016-06-11T00:41:43.871Z,0
2016-06-11T00:42:35.030Z,0
2016-06-11T00:43:34.611Z,0
2016-06-11T00:44:35.708Z,0
2016-06-11T00:45:35.071Z,0
2016-06-11T00:46:34.605Z,0
2016-06-11T00:47:37.609Z,0
2016-06-11T00:48:34.501Z,0
2016-06-11T00:49:37.504Z,0
2016-06-11T00:50:34.462Z,0
2016-06-11T00:51:40.590Z,0
2016-06-11T00:52:34.342Z,0
2016-06-11T00:53:34.330Z,0
2016-06-11T00:54:34.520Z,0
2016-06-11T00:55:34.211Z,0
2016-06-11T00:56:34.386Z,0
2016-06-11T00:57:34.107Z,0
2016-06-11T00:58:40.095Z,0
2016-06-11T00:59:34.676Z,0
2016-06-11T01:00:34.273Z,0
2016-06-11T01:01:37.135Z,0
2016-06-11T01:02:39.904Z,0
2016-06-11T01:03:33.672Z,0
2016-06-11T01:04:40.208Z,0
2016-06-11T01:05:42.803Z,0
2016-06-11T01:06:39.729Z,0
2016-06-11T01:07:40.184Z,0
2016-06-11T01:08:36.610Z,0
2016-06-11T01:09:39.801Z,0
2016-06-11T01:10:39.601Z,0
2016-06-11T01:11:33.494Z,0
2016-06-11T01:12:36.716Z,0
2016-06-11T01:13:45.391Z,0
2016-06-11T01:14:42.472Z,0
2016-06-11T01:15:34.225Z,0
2016-06-11T01:16:33.259Z,0
2016-06-11T01:17:39.263Z,0
2016-06-11T01:18:33.157Z,0
2016-06-11T01:19:39.143Z,0
2016-06-11T01:20:33.069Z,0
2016-06-11T01:21:36.213Z,0
2016-06-11T01:22:36.012Z,0
2016-06-11T01:23:32.922Z,0
2016-06-11T01:24:35.877Z,0
2016-06-11T01:25:35.881Z,0
2016-06-11T01:26:33.009Z,0
2016-06-11T01:27:35.778Z,0
2016-06-11T01:28:32.749Z,0
2016-06-11T01:29:32.424Z,0
2016-06-11T01:30:32.803Z,0
2016-06-11T01:31:32.618Z,0
2016-06-11T01:32:32.544Z,0
2016-06-11T01:33:32.530Z,0
2016-06-11T01:34:36.049Z,0
2016-06-11T01:35:35.631Z,0
2016-06-11T01:36:32.446Z,0
2016-06-11T01:37:35.340Z,0
2016-06-11T01:38:35.265Z,0
2016-06-11T01:39:38.424Z,0
2016-06-11T01:40:35.193Z,0
2016-06-11T01:41:35.150Z,0
2016-06-11T01:42:32.089Z,0
2016-06-11T01:43:38.061Z,0
2016-06-11T01:44:31.878Z,0
2016-06-11T01:45:31.942Z,0
2016-06-11T01:46:32.399Z,0
2016-06-11T01:47:40.854Z,0
2016-06-11T01:48:38.029Z,0
2016-06-11T01:49:31.971Z,0
2016-06-11T01:50:31.708Z,0
2016-06-11T01:51:37.663Z,0
2016-06-11T01:52:40.652Z,0
2016-06-11T01:53:34.576Z,0
2016-06-11T01:54:34.548Z,0
2016-06-11T01:55:31.473Z,0
2016-06-11T01:56:40.585Z,0
2016-06-11T01:57:31.620Z,0
2016-06-11T01:58:34.560Z,0
2016-06-11T01:59:35.251Z,0
2016-06-11T02:00:31.286Z,0
2016-06-11T02:01:31.413Z,0
2016-06-11T02:02:31.401Z,0
2016-06-11T02:03:34.326Z,0
2016-06-11T02:04:34.314Z,0
2016-06-11T02:05:34.067Z,0
2016-06-11T02:06:34.226Z,0
2016-06-11T02:07:30.994Z,0
2016-06-11T02:08:30.904Z,0
2016-06-11T02:09:30.876Z,0
2016-06-11T02:10:33.817Z,0
2016-06-11T02:11:30.756Z,0
2016-06-11T02:12:30.698Z,0
2016-06-11T02:13:30.654Z,0
2016-06-11T02:14:30.954Z,0
2016-06-11T02:15:30.597Z,0
2016-06-11T02:16:30.538Z,0
2016-06-11T02:17:33.760Z,0
2016-06-11T02:18:30.653Z,0
2016-06-11T02:19:30.406Z,0
2016-06-11T02:20:30.597Z,0
2016-06-11T02:21:33.303Z,0
2016-06-11T02:22:30.275Z,0
2016-06-11T02:23:39.263Z,0
2016-06-11T02:24:30.171Z,0
2016-06-11T02:25:39.362Z,0
2016-06-11T02:26:33.303Z,0
2016-06-11T02:27:33.056Z,0
2016-06-11T02:28:29.980Z,0
2016-06-11T02:29:36.234Z,0
2016-06-11T02:30:35.893Z,0
2016-06-11T02:31:39.240Z,0
2016-06-11T02:32:33.009Z,0
2016-06-11T02:33:33.184Z,0
2016-06-11T02:34:41.734Z,0
2016-06-11T02:35:29.659Z,0
2016-06-11T02:36:30.005Z,0
2016-06-11T02:37:35.586Z,0
2016-06-11T02:38:33.200Z,0
2016-06-11T02:39:32.874Z,0
2016-06-11T02:40:32.642Z,0
2016-06-11T02:41:29.489Z,0
2016-06-11T02:42:35.368Z,0
2016-06-11T02:43:41.527Z,0
2016-06-11T02:44:28.827Z,0
2016-06-11T02:45:29.251Z,0
2016-06-11T02:46:32.036Z,0
2016-06-11T02:47:32.305Z,0
2016-06-11T02:48:29.058Z,0
2016-06-11T02:49:28.998Z,0
2016-06-11T02:50:28.986Z,0
2016-06-11T02:51:31.958Z,0
2016-06-11T02:52:34.883Z,0
2016-06-11T02:53:37.823Z,0
2016-06-11T02:54:31.779Z,0
2016-06-11T02:55:29.377Z,0
2016-06-11T02:56:31.927Z,0
2016-06-11T02:57:28.647Z,0
2016-06-11T02:58:28.808Z,0
2016-06-11T02:59:31.717Z,0
2016-06-11T03:00:28.673Z,0
2016-06-11T03:01:28.457Z,0
2016-06-11T03:02:28.508Z,0
2016-06-11T03:03:28.401Z,0
2016-06-11T03:04:28.341Z,0
2016-06-11T03:05:28.283Z,0
2016-06-11T03:06:28.238Z,0
2016-06-11T03:07:28.507Z,0
2016-06-11T03:08:28.354Z,0
2016-06-11T03:09:28.139Z,0
2016-06-11T03:10:28.267Z,0
2016-06-11T03:11:28.222Z,0
2016-06-11T03:12:30.975Z,0
2016-06-11T03:13:27.932Z,0
2016-06-11T03:14:27.919Z,0
2016-06-11T03:15:29.219Z,0
2016-06-11T03:16:33.816Z,0
2016-06-11T03:17:30.741Z,0
2016-06-11T03:18:34.009Z,0
2016-06-11T03:19:30.670Z,0
2016-06-11T03:20:31.359Z,0
2016-06-11T03:21:27.440Z,0
2016-06-11T03:22:30.522Z,0
2016-06-11T03:23:30.697Z,0
2016-06-11T03:24:30.434Z,0
2016-06-11T03:25:27.766Z,0
2016-06-11T03:26:27.316Z,0
2016-06-11T03:27:27.147Z,0
2016-06-11T03:28:33.447Z,0
2016-06-11T03:29:39.450Z,0
2016-06-11T03:30:28.093Z,0
2016-06-11T03:31:29.971Z,0
2016-06-11T03:32:30.084Z,0
2016-06-11T03:33:27.259Z,0
2016-06-11T03:34:30.059Z,0
2016-06-11T03:35:36.202Z,0
2016-06-11T03:36:26.893Z,5
2016-06-11T03:37:26.834Z,5
2016-06-11T03:38:26.836Z,5
2016-06-11T03:39:29.762Z,5
2016-06-11T03:40:26.702Z,5
2016-06-11T03:41:27.533Z,5
2016-06-11T03:42:26.615Z,5
2016-06-11T03:43:26.774Z,5
2016-06-11T03:44:27.136Z,5
2016-06-11T03:45:26.592Z,5
2016-06-11T03:46:26.439Z,10
2016-06-11T03:47:26.287Z,10
2016-06-11T03:48:26.352Z,10
2016-06-11T03:49:26.137Z,10
2016-06-11T03:50:26.248Z,10
2016-06-11T03:51:26.205Z,10
2016-06-11T03:52:26.146Z,10
2016-06-11T03:53:26.086Z,10
2016-06-11T03:54:26.058Z,10
2016-06-11T03:55:29.233Z,10
2016-06-11T03:56:25.970Z,10
2016-06-11T03:57:25.895Z,10
2016-06-11T03:58:28.899Z,10
2016-06-11T03:59:28.682Z,10
2016-06-11T04:00:29.263Z,10
2016-06-11T04:01:25.938Z,10
2016-06-11T04:02:26.707Z,10
2016-06-11T04:03:25.897Z,10
2016-06-11T04:04:28.478Z,10
2016-06-11T04:05:28.576Z,10
2016-06-11T04:06:31.501Z,10
2016-06-11T04:07:31.487Z,10
2016-06-11T04:08:25.632Z,10
2016-06-11T04:09:31.573Z,10
2016-06-11T04:10:28.341Z,10
2016-06-11T04:11:25.282Z,15
2016-06-11T04:12:28.269Z,15
2016-06-11T04:13:28.225Z,15
2016-06-11T04:14:31.198Z,15
2016-06-11T04:15:25.528Z,15
2016-06-11T04:16:24.984Z,15
2016-06-11T04:17:25.004Z,15
2016-06-11T04:18:25.178Z,15
2016-06-11T04:19:25.118Z,15
2016-06-11T04:20:24.888Z,15
2016-06-11T04:21:27.828Z,15
2016-06-11T04:22:24.784Z,15
2016-06-11T04:23:24.741Z,15
2016-06-11T04:24:24.682Z,15
2016-06-11T04:25:24.653Z,15
2016-06-11T04:26:24.453Z,15
2016-06-11T04:27:24.596Z,15
2016-06-11T04:28:24.710Z,15
2016-06-11T04:29:27.477Z,15
2016-06-11T04:30:24.778Z,20
2016-06-11T04:31:24.281Z,20
2016-06-11T04:32:24.737Z,20
2016-06-11T04:33:24.287Z,20
2016-06-11T04:34:24.243Z,20
2016-06-11T04:35:24.043Z,20
2016-06-11T04:36:24.156Z,20
2016-06-11T04:37:23.815Z,20
2016-06-11T04:38:24.068Z,20
2016-06-11T04:39:23.868Z,20
2016-06-11T04:40:29.964Z,20
2016-06-11T04:41:23.765Z,20
2016-06-11T04:42:30.095Z,20
2016-06-11T04:43:23.833Z,20
2016-06-11T04:44:37.899Z,25
2016-06-11T04:45:27.698Z,25
2016-06-11T04:46:23.889Z,25
2016-06-11T04:47:26.643Z,25
2016-06-11T04:48:23.599Z,25
2016-06-11T04:49:26.789Z,25
2016-06-11T04:50:26.745Z,25
2016-06-11T04:51:23.780Z,25
2016-06-11T04:52:23.439Z,25
2016-06-11T04:53:23.380Z,25
2016-06-11T04:54:29.554Z,25
2016-06-11T04:55:23.276Z,25
2016-06-11T04:56:23.263Z,30
2016-06-11T04:57:23.220Z,30
2016-06-11T04:58:23.145Z,30
2016-06-11T04:59:26.117Z,30
2016-06-11T05:00:26.697Z,30
2016-06-11T05:01:23.264Z,30
2016-06-11T05:02:26.157Z,30
2016-06-11T05:03:22.989Z,30
2016-06-11T05:04:28.867Z,30
2016-06-11T05:05:22.823Z,30
2016-06-11T05:06:31.826Z,35
2016-06-11T05:07:28.767Z,35
2016-06-11T05:08:25.675Z,35
2016-06-11T05:09:25.758Z,35
2016-06-11T05:10:25.791Z,35
2016-06-11T05:11:22.560Z,35
2016-06-11T05:12:25.360Z,40
2016-06-11T05:13:22.487Z,40
2016-06-11T05:14:25.429Z,40
2016-06-11T05:15:23.322Z,40
2016-06-11T05:16:25.404Z,40
2016-06-11T05:17:25.313Z,45
2016-06-11T05:18:25.253Z,45
2016-06-11T05:19:22.226Z,45
2016-06-11T05:20:22.167Z,45
2016-06-11T05:21:22.090Z,45
2016-06-11T05:22:25.093Z,50
2016-06-11T05:23:22.019Z,50
2016-06-11T05:24:24.818Z,50
2016-06-11T05:25:24.932Z,50
2016-06-11T05:26:24.763Z,50
2016-06-11T05:27:27.827Z,55
2016-06-11T05:28:28.003Z,55
2016-06-11T05:29:21.615Z,55
2016-06-11T05:30:21.915Z,55
2016-06-11T05:31:22.418Z,55
2016-06-11T05:32:27.624Z,55
2016-06-11T05:33:24.581Z,55
2016-06-11T05:34:24.537Z,55
2016-06-11T05:35:22.041Z,55
2016-06-11T05:36:24.652Z,60
2016-06-11T05:37:21.636Z,60
2016-06-11T05:38:24.862Z,60
2016-06-11T05:39:27.489Z,60
2016-06-11T05:40:27.852Z,60
2016-06-11T05:41:27.840Z,60
2016-06-11T05:42:21.152Z,60
2016-06-11T05:43:21.187Z,60
2016-06-11T05:44:30.521Z,60
2016-06-11T05:45:22.837Z,65
2016-06-11T05:46:24.402Z,65
2016-06-11T05:47:23.983Z,65
2016-06-11T05:48:23.892Z,65
2016-06-11T05:49:36.037Z,65
2016-06-11T05:50:23.773Z,65
2016-06-11T05:51:23.729Z,65
2016-06-11T05:52:29.749Z,70
2016-06-11T05:53:21.218Z,70
2016-06-11T05:54:20.658Z,70
2016-06-11T05:55:23.788Z,70
2016-06-11T05:56:26.592Z,70
2016-06-11T05:57:23.762Z,70
2016-06-11T05:58:23.570Z,70
2016-06-11T05:59:23.567Z,70
2016-06-11T06:00:23.549Z,70
2016-06-11T06:01:29.242Z,75
2016-06-11T06:02:20.539Z,75
2016-06-11T06:03:23.433Z,75
2016-06-11T06:04:20.449Z,75
2016-06-11T06:05:20.357Z,75
2016-06-11T06:06:20.375Z,80
2016-06-11T06:07:23.659Z,80
2016-06-11T06:08:23.262Z,80
2016-06-11T06:09:20.215Z,80
2016-06-11T06:10:23.388Z,75
2016-06-11T06:11:20.154Z,75
2016-06-11T06:12:22.956Z,80
2016-06-11T06:13:20.101Z,80
2016-06-11T06:14:24.643Z,80
2016-06-11T06:15:20.439Z,80
2016-06-11T06:16:23.226Z,80
2016-06-11T06:17:22.714Z,80
2016-06-11T06:18:25.830Z,80
2016-06-11T06:19:22.987Z,80
2016-06-11T06:20:22.506Z,80
2016-06-11T06:21:19.713Z,80
2016-06-11T06:22:23.108Z,80
2016-06-11T06:23:25.677Z,80
2016-06-11T06:24:26.007Z,85
2016-06-11T06:25:22.554Z,85
2016-06-11T06:26:28.732Z,85
2016-06-11T06:27:34.673Z,85
2016-06-11T06:28:22.657Z,90
2016-06-11T06:29:19.504Z,90
2016-06-11T06:30:23.398Z,90
2016-06-11T06:31:22.494Z,90
2016-06-11T06:32:25.236Z,95
2016-06-11T06:33:25.175Z,95
2016-06-11T06:34:25.147Z,95
2016-06-11T06:35:19.178Z,95
2016-06-11T06:36:22.104Z,100
2016-06-11T06:37:25.375Z,100
2016-06-11T06:38:18.937Z,100
2016-06-11T06:39:18.926Z,100
2016-06-11T06:40:18.929Z,100
2016-06-11T06:41:18.791Z,100
2016-06-11T06:42:18.747Z,100
2016-06-11T06:43:21.704Z,100
2016-06-11T06:44:19.050Z,100
2016-06-11T06:45:24.853Z,100
2016-06-11T06:46:21.947Z,100
2016-06-11T06:47:21.544Z,105
2016-06-11T06:48:21.501Z,105
2016-06-11T06:49:19.549Z,105
2016-06-11T06:50:18.802Z,105
2016-06-11T06:51:18.353Z,105
2016-06-11T06:52:22.216Z,105
2016-06-11T06:53:18.343Z,105
2016-06-11T06:54:21.237Z,105
2016-06-11T06:55:18.193Z,105
2016-06-11T06:56:18.134Z,105
2016-06-11T06:57:18.121Z,110
2016-06-11T06:58:21.032Z,110
2016-06-11T06:59:17.815Z,110
2016-06-11T07:00:19.224Z,110
2016-06-11T07:01:17.837Z,110
2016-06-11T07:02:24.058Z,110
2016-06-11T07:03:23.828Z,115
2016-06-11T07:04:20.986Z,115
2016-06-11T07:05:17.943Z,115
2016-06-11T07:06:20.524Z,115
2016-06-11T07:07:26.671Z,115
2016-06-11T07:08:17.780Z,115
2016-06-11T07:09:20.565Z,120
2016-06-11T07:10:26.867Z,120
2016-06-11T07:11:20.461Z,120
2016-06-11T07:12:20.636Z,120
2016-06-11T07:13:17.342Z,120
2016-06-11T07:14:17.142Z,120
2016-06-11T07:15:20.990Z,120
2016-06-11T07:16:23.742Z,120
2016-06-11T07:17:17.604Z,125
2016-06-11T07:18:23.155Z,125
2016-06-11T07:19:20.096Z,125
2016-06-11T07:20:20.129Z,125
2016-06-11T07:21:20.023Z,125
2016-06-11T07:22:17.058Z,130
2016-06-11T07:23:16.904Z,130
2016-06-11T07:24:16.845Z,130
2016-06-11T07:25:16.817Z,130
2016-06-11T07:26:16.648Z,130
2016-06-11T07:27:16.948Z,130
2016-06-11T07:28:31.752Z,130
2016-06-11T07:29:22.642Z,130
2016-06-11T07:30:22.505Z,130
2016-06-11T07:31:19.757Z,130
2016-06-11T07:32:16.729Z,130
2016-06-11T07:33:19.669Z,130
2016-06-11T07:34:16.579Z,130
2016-06-11T07:35:16.441Z,130
2016-06-11T07:36:16.319Z,130
2016-06-11T07:37:19.494Z,130
2016-06-11T07:38:19.122Z,130
2016-06-11T07:39:16.219Z,130
2016-06-11T07:40:16.254Z,130
2016-06-11T07:41:16.397Z,135
2016-06-11T07:42:16.587Z,135
2016-06-11T07:43:16.123Z,135
2016-06-11T07:44:21.985Z,135
2016-06-11T07:45:19.112Z,135
2016-06-11T07:46:31.588Z,135
2016-06-11T07:47:16.041Z,135
2016-06-11T07:48:19.044Z,135
2016-06-11T07:49:15.766Z,135
2016-06-11T07:50:18.737Z,135
2016-06-11T07:51:18.881Z,135
2016-06-11T07:52:15.837Z,135
2016-06-11T07:53:19.465Z,135
2016-06-11T07:54:21.563Z,140
2016-06-11T07:55:18.566Z,140
2016-06-11T07:56:15.693Z,140
2016-06-11T07:57:18.430Z,140
2016-06-11T07:58:18.387Z,140
2016-06-11T07:59:16.078Z,140
2016-06-11T08:00:18.284Z,140
2016-06-11T08:01:15.818Z,140
2016-06-11T08:02:18.368Z,140
2016-06-11T08:03:18.152Z,140
2016-06-11T08:04:24.124Z,140
2016-06-11T08:05:21.471Z,140
2016-06-11T08:06:15.006Z,140
2016-06-11T08:07:15.024Z,140
2016-06-11T08:08:17.778Z,140
2016-06-11T08:09:23.905Z,140
2016-06-11T08:10:17.908Z,140
2016-06-11T08:11:15.020Z,140
2016-06-11T08:12:19.196Z,140
2016-06-11T08:13:14.637Z,140
2016-06-11T08:14:17.685Z,140
2016-06-11T08:15:17.643Z,140
2016-06-11T08:16:18.364Z,140
2016-06-11T08:17:17.633Z,140
2016-06-11T08:18:17.511Z,140
2016-06-11T08:19:14.937Z,140
2016-06-11T08:20:14.392Z,140
2016-06-11T08:21:14.364Z,140
2016-06-11T08:22:14.304Z,140
2016-06-11T08:23:17.277Z,145
2016-06-11T08:24:14.092Z,145
2016-06-11T08:25:17.189Z,145
2016-06-11T08:26:14.161Z,145
2016-06-11T08:27:14.101Z,145
2016-06-11T08:28:20.323Z,145
2016-06-11T08:29:17.232Z,145
2016-06-11T08:30:17.001Z,145
2016-06-11T08:31:14.238Z,145
2016-06-11T08:32:16.898Z,140
2016-06-11T08:33:19.854Z,140
2016-06-11T08:34:13.810Z,140
2016-06-11T08:35:25.782Z,140
2016-06-11T08:36:16.958Z,140
2016-06-11T08:37:13.664Z,140
2016-06-11T08:38:22.853Z,140
2016-06-11T08:39:16.809Z,140
2016-06-11T08:40:16.563Z,140
2016-06-11T08:41:19.535Z,140
2016-06-11T08:42:19.476Z,140
2016-06-11T08:43:19.400Z,140
2016-06-11T08:44:13.575Z,140
2016-06-11T08:45:16.360Z,135
2016-06-11T08:46:13.863Z,135
2016-06-11T08:47:16.241Z,135
2016-06-11T08:48:19.197Z,130
2016-06-11T08:49:19.106Z,130
2016-06-11T08:50:16.218Z,130
2016-06-11T08:51:13.112Z,130
2016-06-11T08:52:19.163Z,125
2016-06-11T08:53:15.994Z,120
2016-06-11T08:54:13.638Z,120
2016-06-11T08:55:12.937Z,120
2016-06-11T08:56:12.847Z,120
2016-06-11T08:57:19.240Z,120
2016-06-11T08:58:12.790Z,120
2016-06-11T08:59:18.809Z,120
2016-06-11T09:00:12.672Z,120
2016-06-11T09:01:22.784Z,120
2016-06-11T09:02:12.444Z,120
2016-06-11T09:03:15.571Z,120
2016-06-11T09:04:15.730Z,120
2016-06-11T09:05:12.483Z,120
2016-06-11T09:06:12.440Z,120
2016-06-11T09:07:12.224Z,120
2016-06-11T09:08:15.320Z,125
2016-06-11T09:09:12.137Z,125
2016-06-11T09:10:12.249Z,125
2016-06-11T09:11:12.190Z,125
2016-06-11T09:12:12.818Z,130
2016-06-11T09:13:12.133Z,135
2016-06-11T09:14:27.106Z,135
2016-06-11T09:15:12.561Z,135
2016-06-11T09:16:21.923Z,130
2016-06-11T09:17:15.458Z,130
2016-06-11T09:18:18.148Z,130
2016-06-11T09:19:14.855Z,130
2016-06-11T09:20:21.030Z,130
2016-06-11T09:21:14.767Z,130
2016-06-11T09:22:14.801Z,135
2016-06-11T09:23:18.195Z,135
2016-06-11T09:24:20.683Z,140
2016-06-11T09:25:17.670Z,140
2016-06-11T09:26:17.845Z,150
2016-06-11T09:27:20.568Z,150
2016-06-11T09:28:14.507Z,145
2016-06-11T09:29:20.449Z,155
2016-06-11T09:30:17.232Z,155
2016-06-11T09:31:18.095Z,155
2016-06-11T09:32:17.364Z,160
2016-06-11T09:33:11.273Z,160
2016-06-11T09:34:11.417Z,160
2016-06-11T09:35:14.248Z,160
2016-06-11T09:36:14.345Z,160
2016-06-11T09:37:13.941Z,165
2016-06-11T09:38:11.038Z,165
2016-06-11T09:39:14.166Z,170
2016-06-11T09:40:22.982Z,175
2016-06-11T09:41:16.939Z,175
2016-06-11T09:42:11.269Z,175
2016-06-11T09:43:10.678Z,175
2016-06-11T09:44:16.776Z,175
2016-06-11T09:45:13.576Z,175
2016-06-11T09:46:10.782Z,165
2016-06-11T09:47:14.301Z,165
2016-06-11T09:48:13.632Z,165
2016-06-11T09:49:16.602Z,165
2016-06-11T09:50:10.560Z,170
2016-06-11T09:51:10.438Z,175
2016-06-11T09:52:10.675Z,175
2016-06-11T09:53:10.444Z,170
2016-06-11T09:54:13.415Z,165
2016-06-11T09:55:13.528Z,165
2016-06-11T09:56:10.343Z,155
2016-06-11T09:57:10.487Z,155
2016-06-11T09:58:16.319Z,165
2016-06-11T09:59:16.400Z,170
2016-06-11T10:00:16.230Z,180
2016-06-11T10:01:12.796Z,180
2016-06-11T10:02:10.331Z,175
2016-06-11T10:03:09.990Z,170
2016-06-11T10:04:12.931Z,170
2016-06-11T10:05:12.918Z,175
2016-06-11T10:06:12.875Z,170
2016-06-11T10:07:13.112Z,170
2016-06-11T10:08:10.021Z,170
2016-06-11T10:09:10.524Z,170
2016-06-11T10:10:13.200Z,170
2016-06-11T10:11:12.703Z,165
2016-06-11T10:12:12.595Z,165
2016-06-11T10:13:09.426Z,160
2016-06-11T10:14:12.211Z,165
2016-06-11T10:15:12.543Z,175
2016-06-11T10:16:15.640Z,180
2016-06-11T10:17:09.939Z,180
2016-06-11T10:18:15.458Z,185
2016-06-11T10:19:12.320Z,195
2016-06-11T10:20:09.293Z,195
2016-06-11T10:21:12.248Z,200
2016-06-11T10:22:15.189Z,200
2016-06-11T10:23:09.129Z,205
2016-06-11T10:24:12.085Z,205
2016-06-11T10:25:09.088Z,210
2016-06-11T10:26:11.857Z,215
2016-06-11T10:27:18.064Z,210
2016-06-11T10:28:14.926Z,210
2016-06-11T10:29:11.898Z,205
2016-06-11T10:30:08.869Z,200
2016-06-11T10:31:14.686Z,200
2016-06-11T10:32:09.079Z,195
2016-06-11T10:33:11.910Z,195
2016-06-11T10:34:12.211Z,195
2016-06-11T10:35:08.463Z,195
2016-06-11T10:36:08.263Z,200
2016-06-11T10:37:08.392Z,195
2016-06-11T10:38:11.363Z,200
2016-06-11T10:39:11.444Z,200
2016-06-11T10:40:11.276Z,200
2016-06-11T10:41:08.372Z,200
2016-06-11T10:42:11.329Z,200
2016-06-11T10:43:14.284Z,205
2016-06-11T10:44:14.241Z,205
2016-06-11T10:45:08.197Z,190
2016-06-11T10:46:08.841Z,180
2016-06-11T10:47:08.125Z,170
2016-06-11T10:48:08.175Z,160
2016-06-11T10:49:08.117Z,160
2016-06-11T10:50:11.181Z,155
2016-06-11T10:51:07.935Z,155
2016-06-11T10:52:07.906Z,150
2016-06-11T10:53:07.707Z,145
2016-06-11T10:54:08.006Z,150
2016-06-11T10:55:08.291Z,155
2016-06-11T10:56:13.919Z,155
2016-06-11T10:57:07.687Z,165
2016-06-11T10:58:07.644Z,170
2016-06-11T10:59:16.647Z,175
2016-06-11T11:00:07.571Z,180
2016-06-11T11:01:10.528Z,185
2016-06-11T11:02:07.515Z,195
2016-06-11T11:03:07.441Z,205
2016-06-11T11:04:07.583Z,210
2016-06-11T11:05:07.602Z,215
2016-06-11T11:06:10.497Z,220
2016-06-11T11:07:10.327Z,220
2016-06-11T11:08:07.268Z,225
2016-06-11T11:09:10.193Z,230
2016-06-11T11:10:07.196Z,225
2016-06-11T11:11:07.104Z,215
2016-06-11T11:12:07.077Z,210
2016-06-11T11:13:07.033Z,205
2016-06-11T11:14:10.021Z,200
2016-06-11T11:15:06.961Z,200
2016-06-11T11:16:09.917Z,200
2016-06-11T11:17:10.921Z,200
2016-06-11T11:18:06.642Z,200
2016-06-11T11:19:06.771Z,200
2016-06-11T11:20:06.852Z,195
2016-06-11T11:21:09.668Z,180
2016-06-11T11:22:06.671Z,170
2016-06-11T11:23:06.455Z,160
2016-06-11T11:24:06.567Z,160
2016-06-11T11:25:06.523Z,160
2016-06-11T11:26:06.464Z,165
2016-06-11T11:27:06.311Z,170
2016-06-11T11:28:12.423Z,170
2016-06-11T11:29:12.379Z,170
2016-06-11T11:30:06.305Z,165
2016-06-11T11:31:09.261Z,160
2016-06-11T11:32:06.999Z,150
2016-06-11T11:33:09.252Z,145
2016-06-11T11:34:09.130Z,145
2016-06-11T11:35:12.147Z,145
2016-06-11T11:36:08.886Z,150
2016-06-11T11:37:09.279Z,145
2016-06-11T11:38:05.953Z,145
2016-06-11T11:39:08.941Z,145
2016-06-11T11:40:08.914Z,145
2016-06-11T11:41:11.854Z,150
2016-06-11T11:42:05.982Z,160
2016-06-11T11:43:05.767Z,170
2016-06-11T11:44:05.722Z,175
2016-06-11T11:45:05.709Z,180
2016-06-11T11:46:08.682Z,185
2016-06-11T11:47:08.590Z,190
2016-06-11T11:48:05.579Z,195
2016-06-11T11:49:05.519Z,190
2016-06-11T11:50:05.474Z,190
2016-06-11T11:51:05.416Z,185
2016-06-11T11:52:11.419Z,180
2016-06-11T11:53:05.344Z,170
2016-06-11T11:54:08.300Z,165
2016-06-11T11:55:05.256Z,155
2016-06-11T11:56:05.197Z,150
2016-06-11T11:57:05.043Z,150
2016-06-11T11:58:05.312Z,155
2016-06-11T11:59:05.299Z,150
2016-06-11T12:00:05.069Z,150
2016-06-11T12:01:05.197Z,155
2016-06-11T12:02:05.559Z,160
2016-06-11T12:03:05.125Z,165
2016-06-11T12:04:05.003Z,165
2016-06-11T12:05:04.677Z,170
2016-06-11T12:06:04.774Z,170
2016-06-11T12:07:04.840Z,170
2016-06-11T12:08:04.749Z,170
2016-06-11T12:09:07.658Z,170
2016-06-11T12:10:08.147Z,170
2016-06-11T12:11:07.586Z,180
2016-06-11T12:12:04.886Z,190
2016-06-11T12:13:04.500Z,195
2016-06-11T12:14:04.659Z,200
2016-06-11T12:15:04.442Z,205
2016-06-11T12:16:10.384Z,195
2016-06-11T12:17:10.949Z,185
2016-06-11T12:18:04.171Z,180
2016-06-11T12:19:07.268Z,180
2016-06-11T12:20:07.208Z,180
2016-06-11T12:21:04.180Z,170
2016-06-11T12:22:04.214Z,175
2016-06-11T12:23:07.123Z,175
2016-06-11T12:24:03.908Z,170
2016-06-11T12:25:07.427Z,170
2016-06-11T12:26:07.023Z,170
2016-06-11T12:27:03.761Z,170
2016-06-11T12:28:06.889Z,170
2016-06-11T12:29:09.860Z,160
2016-06-11T12:30:03.645Z,165
2016-06-11T12:31:03.758Z,170
2016-06-11T12:32:03.917Z,175
2016-06-11T12:33:03.686Z,180
2016-06-11T12:34:06.829Z,180
2016-06-11T12:35:03.583Z,185
2016-06-11T12:36:06.399Z,185
2016-06-11T12:37:03.354Z,190
2016-06-11T12:38:03.544Z,195
2016-06-11T12:39:03.407Z,200
2016-06-11T12:40:06.473Z,205
2016-06-11T12:41:03.320Z,220
2016-06-11T12:42:03.323Z,225
2016-06-11T12:43:06.529Z,220
2016-06-11T12:44:06.235Z,220
2016-06-11T12:45:03.160Z,220
2016-06-11T12:46:03.319Z,210
2016-06-11T12:47:02.947Z,205
2016-06-11T12:48:02.732Z,205
2016-06-11T12:49:05.985Z,200
2016-06-11T12:50:02.957Z,195
2016-06-11T12:51:06.131Z,190
2016-06-11T12:52:02.870Z,190
2016-06-11T12:53:02.841Z,185
2016-06-11T12:54:02.657Z,190
2016-06-11T12:55:02.738Z,185
2016-06-11T12:56:03.022Z,170
2016-06-11T12:57:03.275Z,160
2016-06-11T12:58:02.638Z,150
2016-06-11T12:59:02.875Z,150
2016-06-11T13:00:05.770Z,145
2016-06-11T13:01:05.537Z,145
2016-06-11T13:02:03.071Z,140
2016-06-11T13:03:03.435Z,140
2016-06-11T13:04:02.452Z,150
2016-06-11T13:05:02.394Z,155
2016-06-11T13:06:02.302Z,155
2016-06-11T13:07:02.556Z,160
2016-06-11T13:08:02.231Z,160
2016-06-11T13:09:08.093Z,160
2016-06-11T13:10:02.206Z,160
2016-06-11T13:11:02.162Z,155
2016-06-11T13:12:02.071Z,145
2016-06-11T13:13:01.980Z,140
2016-06-11T13:14:02.140Z,135
2016-06-11T13:15:02.128Z,130
2016-06-11T13:16:04.896Z,130
2016-06-11T13:17:04.899Z,125
2016-06-11T13:18:05.761Z,125
2016-06-11T13:19:04.593Z,120
2016-06-11T13:20:01.784Z,120
2016-06-11T13:21:01.646Z,115
2016-06-11T13:22:01.633Z,110
2016-06-11T13:23:01.590Z,110
2016-06-11T13:24:04.514Z,110
2016-06-11T13:25:01.502Z,115
2016-06-11T13:26:01.661Z,120
2016-06-11T13:27:01.415Z,125
2016-06-11T13:28:01.401Z,135
2016-06-11T13:29:01.326Z,145
2016-06-11T13:30:01.548Z,150
2016-06-11T13:31:01.223Z,150
2016-06-11T13:32:01.258Z,150
2016-06-11T13:33:01.792Z,145
2016-06-11T13:34:01.139Z,140
2016-06-11T13:35:01.095Z,140
2016-06-11T13:36:01.051Z,135
2016-06-11T13:37:00.992Z,135
2016-06-11T13:38:09.948Z,140
2016-06-11T13:39:01.107Z,145
2016-06-11T13:40:00.892Z,150
2016-06-11T13:41:01.099Z,150
2016-06-11T13:42:04.210Z,155
2016-06-11T13:43:03.777Z,155
2016-06-11T13:44:00.686Z,165
2016-06-11T13:45:00.642Z,175
2016-06-11T13:46:00.597Z,190
2016-06-11T13:47:03.820Z,200
2016-06-11T13:48:00.557Z,205
2016-06-11T13:49:00.576Z,210
2016-06-11T13:50:09.501Z,215
2016-06-11T13:51:00.847Z,210
2016-06-11T13:52:09.772Z,200
2016-06-11T13:53:00.307Z,200
2016-06-11T13:54:06.466Z,195
2016-06-11T13:55:00.641Z,185
2016-06-11T13:56:03.207Z,175
2016-06-11T13:57:03.162Z,175
2016-06-11T13:58:03.322Z,175
2016-06-11T13:59:00.076Z,180
2016-06-11T14:00:03.032Z,185
2016-06-11T14:00:59.972Z,190
2016-06-11T14:02:03.553Z,205
2016-06-11T14:02:59.900Z,215
2016-06-11T14:03:59.872Z,220
2016-06-11T14:05:00.344Z,220
2016-06-11T14:06:02.972Z,225
2016-06-11T14:07:05.756Z,225